createdAt,value
2022-07-31T00:00:30.730Z,7.25
2022-07-31T00:02:59.575Z,7.22
2022-07-31T00:05:28.338Z,7.20
2022-07-31T00:07:58.367Z,7.65
2022-07-31T00:10:26.894Z,8.25
2022-07-31T00:12:55.321Z,8.07
2022-07-31T00:15:23.667Z,7.22
2022-07-31T00:17:52.695Z,7.45
2022-07-31T00:20:21.321Z,6.88
2022-07-31T00:22:50.543Z,6.68
2022-07-31T00:25:20.490Z,7.47
2022-07-31T00:27:48.984Z,7.05
2022-07-31T00:30:17.969Z,7.63
2022-07-31T00:32:46.823Z,6.75
2022-07-31T00:35:17.642Z,6.95
2022-07-31T00:37:46.077Z,6.90
2022-07-31T00:40:17.299Z,6.80
2022-07-31T00:42:47.205Z,7.65
2022-07-31T00:45:15.669Z,6.40
2022-07-31T00:47:44.901Z,5.97
2022-07-31T00:50:14.063Z,6.10
2022-07-31T00:52:43.590Z,5.95
2022-07-31T00:55:13.902Z,5.65
2022-07-31T00:57:43.627Z,6.88
2022-07-31T01:00:18.665Z,6.20
2022-07-31T01:02:47.587Z,5.85
2022-07-31T01:05:18.814Z,5.88
2022-07-31T01:07:51.460Z,5.68
2022-07-31T01:10:39.930Z,6.13
2022-07-31T01:13:16.244Z,6.55
2022-07-31T01:15:46.959Z,4.95
2022-07-31T01:18:17.116Z,5.53
2022-07-31T01:20:48.266Z,5.50
2022-07-31T01:23:55.031Z,5.40
2022-07-31T01:26:59.057Z,5.63
2022-07-31T01:29:33.119Z,6.03
2022-07-31T01:32:07.678Z,6.22
2022-07-31T01:34:43.663Z,5.68
2022-07-31T01:37:20.783Z,5.35
2022-07-31T01:39:57.537Z,5.32
2022-07-31T01:42:27.147Z,5.40
2022-07-31T01:45:01.609Z,5.18
2022-07-31T01:47:33.035Z,5.20
2022-07-31T01:50:04.823Z,4.50
2022-07-31T01:52:34.863Z,5.68
2022-07-31T01:55:06.677Z,5.05
2022-07-31T01:57:36.305Z,5.60
2022-07-31T02:00:33.174Z,5.00
2022-07-31T02:03:01.413Z,5.35
2022-07-31T02:05:42.391Z,5.32
2022-07-31T02:08:12.738Z,6.25
2022-07-31T02:10:46.265Z,6.25
2022-07-31T02:13:17.825Z,7.13
2022-07-31T02:15:49.001Z,5.68
2022-07-31T02:18:21.656Z,5.55
2022-07-31T02:21:08.663Z,5.45
2022-07-31T02:23:38.649Z,5.97
2022-07-31T02:26:09.082Z,5.77
2022-07-31T02:28:42.441Z,5.90
2022-07-31T02:31:14.612Z,6.10
2022-07-31T02:33:48.123Z,5.82
2022-07-31T02:36:20.197Z,6.18
2022-07-31T02:38:50.599Z,6.43
2022-07-31T02:41:20.547Z,5.97
2022-07-31T02:43:52.644Z,5.65
2022-07-31T02:46:24.492Z,6.22
2022-07-31T02:48:53.851Z,6.10
2022-07-31T02:51:24.840Z,6.50
2022-07-31T02:53:54.758Z,6.57
2022-07-31T02:56:26.541Z,6.47
2022-07-31T02:58:55.743Z,6.65
2022-07-31T03:01:30.945Z,6.15
2022-07-31T03:06:29.780Z,6.88
2022-07-31T03:08:59.317Z,7.10
2022-07-31T03:11:30.049Z,7.50
2022-07-31T03:14:01.912Z,6.78
2022-07-31T03:16:34.047Z,7.18
2022-07-31T03:19:05.369Z,6.57
2022-07-31T03:21:33.952Z,7.55
2022-07-31T03:24:05.982Z,7.18
2022-07-31T03:26:35.268Z,7.53
2022-07-31T03:29:03.800Z,8.23
2022-07-31T03:31:33.633Z,8.63
2022-07-31T03:34:02.653Z,7.85
2022-07-31T03:36:32.093Z,8.85
2022-07-31T03:39:00.507Z,8.70
2022-07-31T03:41:36.631Z,8.65
2022-07-31T03:44:07.931Z,8.90
2022-07-31T03:46:37.684Z,8.88
2022-07-31T03:49:06.795Z,9.37
2022-07-31T03:51:36.032Z,9.53
2022-07-31T03:54:04.993Z,9.40
2022-07-31T03:56:50.936Z,9.60
2022-07-31T03:59:21.707Z,10.68
2022-07-31T04:01:58.212Z,11.43
2022-07-31T04:04:45.273Z,11.63
2022-07-31T04:07:13.750Z,11.85
2022-07-31T04:09:42.888Z,12.00
2022-07-31T04:12:12.902Z,12.73
2022-07-31T04:14:41.696Z,12.68
2022-07-31T04:17:11.497Z,12.93
2022-07-31T04:19:39.939Z,12.90
2022-07-31T04:22:09.055Z,12.65
2022-07-31T04:27:25.483Z,13.75
2022-07-31T04:29:55.568Z,14.52
2022-07-31T04:32:25.612Z,15.00
2022-07-31T04:35:03.967Z,13.68
2022-07-31T04:37:33.498Z,14.40
2022-07-31T04:40:01.861Z,13.70
2022-07-31T04:42:32.732Z,13.88
2022-07-31T04:45:01.724Z,14.88
2022-07-31T04:47:31.390Z,13.85
2022-07-31T04:50:00.138Z,13.43
2022-07-31T04:52:28.597Z,13.30
2022-07-31T04:55:03.141Z,13.52
2022-07-31T04:57:31.523Z,14.68
2022-07-31T05:00:01.299Z,14.88
2022-07-31T05:02:35.891Z,14.82
2022-07-31T05:05:05.111Z,13.50
2022-07-31T05:07:39.861Z,14.48
2022-07-31T05:10:29.984Z,15.05
2022-07-31T05:12:58.347Z,15.77
2022-07-31T05:15:26.870Z,15.25
2022-07-31T05:17:57.522Z,15.10
2022-07-31T05:20:54.850Z,16.17
2022-07-31T05:23:38.259Z,16.15
2022-07-31T05:26:17.992Z,15.15
2022-07-31T05:28:46.876Z,14.50
2022-07-31T05:31:15.539Z,15.20
2022-07-31T05:33:45.653Z,15.82
2022-07-31T05:36:14.063Z,15.02
2022-07-31T05:38:43.443Z,15.63
2022-07-31T05:41:26.909Z,15.02
2022-07-31T05:44:01.496Z,16.02
2022-07-31T05:46:39.676Z,15.90
2022-07-31T05:49:10.510Z,14.88
2022-07-31T05:51:39.052Z,15.90
2022-07-31T05:54:07.467Z,17.20
2022-07-31T05:56:54.648Z,15.30
2022-07-31T05:59:32.339Z,17.35
2022-07-31T06:02:01.208Z,15.18
2022-07-31T06:04:32.217Z,17.05
2022-07-31T06:07:01.123Z,16.80
2022-07-31T06:09:31.415Z,18.25
2022-07-31T06:12:00.119Z,17.60
2022-07-31T06:14:28.779Z,19.02
2022-07-31T06:17:17.519Z,18.25
2022-07-31T06:19:47.373Z,17.63
2022-07-31T06:22:17.577Z,18.23
2022-07-31T06:24:46.154Z,17.63
2022-07-31T06:27:33.159Z,17.20
2022-07-31T06:30:03.083Z,17.52
2022-07-31T06:32:31.837Z,18.88
2022-07-31T06:35:02.543Z,17.95
2022-07-31T06:37:33.853Z,17.00
2022-07-31T06:40:02.860Z,18.15
2022-07-31T06:42:49.775Z,18.10
2022-07-31T06:45:51.699Z,18.40
2022-07-31T06:48:40.741Z,19.05
2022-07-31T06:51:30.267Z,18.88
2022-07-31T06:53:59.483Z,18.92
2022-07-31T06:56:28.567Z,17.83
2022-07-31T06:58:57.453Z,19.70
2022-07-31T07:01:25.818Z,19.27
2022-07-31T07:03:54.523Z,18.65
2022-07-31T07:06:25.319Z,18.92
2022-07-31T07:08:54.239Z,17.92
2022-07-31T07:11:23.689Z,17.52
2022-07-31T07:13:52.079Z,16.40
2022-07-31T07:16:21.275Z,17.30
2022-07-31T07:18:50.003Z,17.65
2022-07-31T07:21:18.543Z,17.02
2022-07-31T07:23:48.540Z,16.08
2022-07-31T07:26:29.444Z,15.45
2022-07-31T07:28:57.893Z,15.65
2022-07-31T07:31:26.298Z,15.70
2022-07-31T07:33:55.777Z,16.52
2022-07-31T07:39:05.792Z,14.77
2022-07-31T07:41:35.606Z,15.80
2022-07-31T07:44:04.125Z,14.98
2022-07-31T07:46:32.558Z,14.60
2022-07-31T07:49:05.625Z,15.63
2022-07-31T07:51:38.551Z,13.98
2022-07-31T07:54:33.945Z,14.23
2022-07-31T07:57:22.280Z,13.93
2022-07-31T08:00:09.657Z,15.30
2022-07-31T08:03:46.406Z,14.02
2022-07-31T08:05:48.518Z,14.75
2022-07-31T08:08:16.928Z,14.68
2022-07-31T08:10:52.687Z,15.15
2022-07-31T08:13:28.789Z,14.10
2022-07-31T08:16:15.745Z,16.33
2022-07-31T08:18:51.835Z,15.77
2022-07-31T08:21:20.233Z,14.60
2022-07-31T08:23:48.939Z,14.88
2022-07-31T08:26:19.335Z,16.92
2022-07-31T08:28:51.007Z,16.58
2022-07-31T08:31:23.720Z,16.65
2022-07-31T08:34:31.346Z,18.27
2022-07-31T08:37:59.156Z,19.33
2022-07-31T08:39:53.145Z,20.23
2022-07-31T08:42:23.062Z,20.33
2022-07-31T08:44:51.923Z,21.33
2022-07-31T08:47:26.198Z,24.40
2022-07-31T08:49:58.009Z,25.02
2022-07-31T08:52:28.621Z,26.67
2022-07-31T08:55:09.400Z,26.95
2022-07-31T08:57:39.742Z,29.58
2022-07-31T09:00:12.982Z,28.80
2022-07-31T09:02:42.316Z,27.77
2022-07-31T09:05:17.222Z,26.77
2022-07-31T09:07:45.658Z,27.35
2022-07-31T09:10:25.422Z,25.58
2022-07-31T09:12:56.750Z,25.67
2022-07-31T09:15:30.014Z,24.20
2022-07-31T09:18:02.212Z,24.60
2022-07-31T09:20:33.235Z,25.73
2022-07-31T09:23:10.340Z,24.90
2022-07-31T09:25:54.024Z,25.23
2022-07-31T09:28:34.516Z,22.15
2022-07-31T09:31:04.700Z,23.40
2022-07-31T09:34:12.055Z,22.63
2022-07-31T09:36:40.714Z,22.67
2022-07-31T09:39:31.470Z,21.52
2022-07-31T09:42:44.294Z,19.98
2022-07-31T09:45:25.732Z,20.65
2022-07-31T09:48:08.220Z,20.20
2022-07-31T09:50:36.882Z,19.15
2022-07-31T09:53:06.661Z,18.48
2022-07-31T09:55:36.672Z,18.05
2022-07-31T09:58:05.339Z,18.48
2022-07-31T10:00:42.650Z,15.90
2022-07-31T10:03:14.879Z,13.70
2022-07-31T10:05:44.868Z,13.60
2022-07-31T10:08:17.235Z,14.35
2022-07-31T10:11:16.590Z,12.95
2022-07-31T10:13:58.126Z,11.88
2022-07-31T10:16:31.108Z,10.07
2022-07-31T10:19:33.929Z,9.95
2022-07-31T10:22:25.155Z,10.98
2022-07-31T10:24:56.303Z,9.93
2022-07-31T10:27:24.996Z,8.68
2022-07-31T10:30:10.474Z,8.00
2022-07-31T10:32:45.525Z,8.50
2022-07-31T10:35:29.171Z,7.20
2022-07-31T10:38:24.137Z,7.93
2022-07-31T10:41:03.986Z,7.93
2022-07-31T10:43:47.810Z,7.38
2022-07-31T10:46:28.716Z,6.25
2022-07-31T10:49:46.313Z,6.57
2022-07-31T10:52:57.305Z,7.47
2022-07-31T10:55:36.680Z,8.50
2022-07-31T10:58:32.603Z,8.00
2022-07-31T11:01:12.159Z,8.40
2022-07-31T11:04:05.175Z,9.23
2022-07-31T11:07:21.146Z,9.80
2022-07-31T11:10:16.363Z,10.13
2022-07-31T11:13:05.628Z,10.05
2022-07-31T11:16:05.441Z,9.10
2022-07-31T11:19:01.935Z,10.40
2022-07-31T11:21:38.897Z,8.80
2022-07-31T11:24:16.676Z,9.25
2022-07-31T11:26:50.961Z,8.95
2022-07-31T11:30:00.870Z,8.50
2022-07-31T11:32:24.805Z,8.32
2022-07-31T11:34:57.558Z,8.13
2022-07-31T11:37:46.299Z,7.72
2022-07-31T11:40:18.678Z,8.82
2022-07-31T11:43:10.388Z,8.20
2022-07-31T11:45:48.297Z,7.57
2022-07-31T11:48:19.316Z,7.68
2022-07-31T11:50:49.102Z,7.55
2022-07-31T11:53:17.882Z,8.00
2022-07-31T11:55:49.936Z,7.68
2022-07-31T11:58:20.813Z,8.27
2022-07-31T12:00:55.106Z,7.68
2022-07-31T12:03:26.557Z,7.95
2022-07-31T12:05:55.160Z,7.28
2022-07-31T12:08:25.283Z,7.18
2022-07-31T12:10:57.732Z,7.32
2022-07-31T12:13:27.771Z,6.38
2022-07-31T12:16:04.239Z,7.00
2022-07-31T12:18:35.366Z,6.85
2022-07-31T12:21:05.986Z,7.45
2022-07-31T12:26:14.375Z,6.85
2022-07-31T12:28:43.938Z,6.07
2022-07-31T12:31:12.460Z,6.70
2022-07-31T12:33:45.744Z,6.60
2022-07-31T12:36:16.986Z,6.32
2022-07-31T12:38:48.201Z,7.32
2022-07-31T12:41:18.786Z,6.82
2022-07-31T12:43:51.317Z,6.55
2022-07-31T12:46:22.769Z,7.22
2022-07-31T12:48:52.078Z,6.93
2022-07-31T12:51:44.100Z,7.90
2022-07-31T12:54:12.175Z,7.43
2022-07-31T12:56:43.068Z,7.70
2022-07-31T12:59:12.941Z,7.53
2022-07-31T13:01:41.493Z,8.73
2022-07-31T13:04:18.338Z,8.50
2022-07-31T13:06:51.555Z,8.07
2022-07-31T13:09:21.097Z,7.95
2022-07-31T13:11:55.819Z,7.40
2022-07-31T13:14:26.236Z,7.97
2022-07-31T13:16:56.047Z,8.52
2022-07-31T13:19:24.741Z,7.82
2022-07-31T13:21:56.812Z,7.90
2022-07-31T13:24:25.619Z,8.15
2022-07-31T13:26:58.692Z,7.32
2022-07-31T13:29:27.123Z,8.32
2022-07-31T13:31:55.639Z,7.90
2022-07-31T13:34:24.158Z,7.35
2022-07-31T13:36:52.603Z,7.00
2022-07-31T13:39:21.025Z,7.63
2022-07-31T13:41:49.353Z,7.13
2022-07-31T13:44:19.074Z,7.40
2022-07-31T13:46:47.386Z,7.80
2022-07-31T13:49:15.840Z,7.53
2022-07-31T13:51:44.274Z,7.70
2022-07-31T13:54:13.345Z,7.82
2022-07-31T13:56:43.671Z,8.55
2022-07-31T13:59:16.200Z,7.82
2022-07-31T14:02:03.363Z,8.20
2022-07-31T14:04:38.779Z,8.23
2022-07-31T14:07:09.116Z,8.60
2022-07-31T14:09:37.995Z,8.13
2022-07-31T14:12:07.546Z,8.13
2022-07-31T14:14:37.906Z,8.82
2022-07-31T14:17:07.671Z,10.02
2022-07-31T14:19:42.055Z,9.65
2022-07-31T14:22:14.465Z,10.10
2022-07-31T14:24:50.056Z,10.05
2022-07-31T14:27:21.012Z,9.40
2022-07-31T14:29:49.592Z,9.05
2022-07-31T14:32:21.849Z,7.90
2022-07-31T14:34:50.978Z,8.65
2022-07-31T14:37:20.523Z,8.52
2022-07-31T14:39:49.068Z,8.67
2022-07-31T14:42:22.523Z,8.63
2022-07-31T14:44:54.453Z,7.90
2022-07-31T14:47:24.274Z,7.85
2022-07-31T14:50:07.522Z,8.40
2022-07-31T14:52:39.426Z,8.55
2022-07-31T14:55:09.472Z,8.07
2022-07-31T14:57:37.911Z,8.05
2022-07-31T15:00:12.822Z,8.52
2022-07-31T15:02:44.538Z,8.15
2022-07-31T15:06:41.630Z,8.05
2022-07-31T15:08:03.592Z,8.57
2022-07-31T15:10:32.890Z,8.43
2022-07-31T15:13:01.172Z,8.98
2022-07-31T15:15:29.532Z,9.23
2022-07-31T15:18:01.748Z,8.20
2022-07-31T15:20:32.972Z,8.73
2022-07-31T15:23:01.571Z,9.15
2022-07-31T15:25:30.092Z,8.70
2022-07-31T15:27:58.501Z,9.05
2022-07-31T15:30:26.819Z,8.95
2022-07-31T15:32:55.169Z,8.57
2022-07-31T15:35:25.081Z,8.80
2022-07-31T15:37:53.607Z,8.70
2022-07-31T15:40:22.004Z,9.05
2022-07-31T15:42:50.343Z,9.77
2022-07-31T15:45:20.909Z,9.40
2022-07-31T15:50:20.221Z,9.95
2022-07-31T15:55:19.276Z,9.68
2022-07-31T15:57:47.902Z,10.27
2022-07-31T16:00:17.376Z,9.52
2022-07-31T16:02:45.878Z,9.80
2022-07-31T16:05:21.734Z,9.70
2022-07-31T16:08:29.639Z,9.52
2022-07-31T16:10:54.824Z,9.80
2022-07-31T16:13:24.251Z,10.15
2022-07-31T16:15:53.004Z,9.90
2022-07-31T16:18:21.853Z,9.40
2022-07-31T16:20:50.343Z,9.40
2022-07-31T16:23:20.040Z,10.38
2022-07-31T16:25:48.464Z,10.53
2022-07-31T16:28:16.827Z,10.23
2022-07-31T16:30:45.854Z,10.18
2022-07-31T16:33:14.413Z,10.93
2022-07-31T16:35:42.826Z,11.30
2022-07-31T16:38:11.218Z,13.48
2022-07-31T16:40:41.123Z,13.05
2022-07-31T16:43:50.609Z,12.35
2022-07-31T16:45:59.707Z,10.63
2022-07-31T16:48:28.048Z,9.88
2022-07-31T16:50:56.510Z,11.05
2022-07-31T16:54:13.757Z,10.82
2022-07-31T16:56:16.657Z,10.52
2022-07-31T16:58:45.119Z,10.88
2022-07-31T17:01:58.918Z,10.50
2022-07-31T17:04:04.383Z,10.50
2022-07-31T17:06:34.705Z,10.75
2022-07-31T17:09:17.238Z,11.73
2022-07-31T17:11:50.435Z,10.13
2022-07-31T17:14:21.618Z,10.32
2022-07-31T17:16:51.730Z,10.93
2022-07-31T17:19:41.107Z,10.75
2022-07-31T17:22:18.008Z,10.65
2022-07-31T17:24:50.673Z,10.85
2022-07-31T17:27:22.797Z,10.15
2022-07-31T17:29:51.461Z,11.10
2022-07-31T17:32:19.780Z,10.65
2022-07-31T17:34:49.542Z,10.57
2022-07-31T17:37:18.220Z,10.20
2022-07-31T17:39:47.641Z,11.07
2022-07-31T17:42:18.054Z,11.52
2022-07-31T17:44:55.021Z,11.10
2022-07-31T17:47:25.754Z,11.05
2022-07-31T17:49:55.416Z,10.90
2022-07-31T17:52:24.018Z,9.75
2022-07-31T17:54:53.625Z,10.27
2022-07-31T17:57:22.933Z,11.20
2022-07-31T17:59:53.657Z,11.30
2022-07-31T18:04:51.041Z,11.15
2022-07-31T18:07:22.731Z,10.02
2022-07-31T18:09:51.302Z,11.25
2022-07-31T18:12:19.688Z,11.52
2022-07-31T18:14:48.724Z,10.85
2022-07-31T18:17:19.390Z,11.38
2022-07-31T18:22:15.926Z,11.90
2022-07-31T18:24:44.321Z,10.82
2022-07-31T18:27:12.604Z,11.93
2022-07-31T18:29:40.971Z,11.43
2022-07-31T18:32:09.284Z,10.35
2022-07-31T18:34:39.017Z,10.10
2022-07-31T18:37:07.379Z,10.70
2022-07-31T18:39:47.894Z,10.50
2022-07-31T18:42:17.729Z,11.88
2022-07-31T18:44:46.125Z,10.30
2022-07-31T18:47:14.755Z,10.85
2022-07-31T18:51:00.416Z,10.80
2022-07-31T18:52:32.898Z,11.37
2022-07-31T18:55:01.317Z,10.18
2022-07-31T18:57:30.473Z,10.00
2022-07-31T18:59:58.794Z,10.80
2022-07-31T19:02:28.129Z,10.75
2022-07-31T19:04:58.541Z,10.77
2022-07-31T19:07:27.499Z,11.18
2022-07-31T19:09:55.879Z,10.30
2022-07-31T19:12:24.558Z,10.98
2022-07-31T19:14:53.158Z,10.52
2022-07-31T19:17:21.686Z,10.98
2022-07-31T19:19:55.034Z,12.05
2022-07-31T19:22:31.465Z,11.32
2022-07-31T19:24:59.847Z,13.17
2022-07-31T19:27:47.135Z,11.85
2022-07-31T19:30:16.941Z,11.65
2022-07-31T19:32:45.260Z,11.88
2022-07-31T19:35:13.596Z,11.63
2022-07-31T19:37:43.357Z,11.65
2022-07-31T19:40:12.880Z,11.50
2022-07-31T19:42:41.277Z,12.20
2022-07-31T19:45:10.678Z,11.13
2022-07-31T19:47:39.213Z,11.00
2022-07-31T19:50:08.752Z,11.20
2022-07-31T19:52:37.126Z,10.85
2022-07-31T19:55:09.112Z,10.18
2022-07-31T19:57:38.229Z,10.82
2022-07-31T20:00:09.574Z,10.63
2022-07-31T20:02:38.305Z,10.60
2022-07-31T20:05:09.040Z,10.15
2022-07-31T20:07:38.615Z,10.17
2022-07-31T20:10:10.810Z,10.85
2022-07-31T20:12:40.819Z,10.27
2022-07-31T20:15:10.716Z,10.57
2022-07-31T20:17:39.579Z,10.73
2022-07-31T20:20:16.065Z,10.43
2022-07-31T20:22:44.929Z,10.93
2022-07-31T20:25:20.354Z,10.40
2022-07-31T20:27:49.919Z,11.57
2022-07-31T20:30:21.831Z,11.40
2022-07-31T20:32:51.519Z,10.90
2022-07-31T20:35:31.217Z,10.97
2022-07-31T20:38:15.571Z,10.63
2022-07-31T20:40:48.265Z,9.73
2022-07-31T20:43:21.984Z,10.07
2022-07-31T20:45:50.390Z,10.23
2022-07-31T20:48:18.843Z,10.45
2022-07-31T20:50:48.213Z,9.88
2022-07-31T20:53:17.360Z,9.37
2022-07-31T20:55:49.726Z,10.05
2022-07-31T20:58:18.928Z,10.30
2022-07-31T21:00:48.398Z,9.05
2022-07-31T21:03:17.741Z,8.77
2022-07-31T21:05:47.064Z,8.48
2022-07-31T21:08:15.559Z,9.02
2022-07-31T21:10:44.273Z,8.70
2022-07-31T21:13:14.359Z,9.55
2022-07-31T21:15:45.319Z,9.20
2022-07-31T21:18:15.623Z,10.25
2022-07-31T21:20:51.740Z,9.48
2022-07-31T21:23:23.658Z,9.25
2022-07-31T21:25:52.719Z,8.90
2022-07-31T21:28:24.101Z,8.80
2022-07-31T21:30:55.757Z,8.80
2022-07-31T21:33:26.689Z,9.32
2022-07-31T21:35:55.540Z,9.68
2022-07-31T21:38:24.622Z,9.45
2022-07-31T21:40:56.311Z,9.75
2022-07-31T21:43:30.483Z,10.38
2022-07-31T21:46:20.890Z,10.45
2022-07-31T21:48:51.253Z,9.13
2022-07-31T21:51:20.330Z,10.23
2022-07-31T21:53:48.740Z,9.65
2022-07-31T21:56:17.200Z,10.48
2022-07-31T21:58:46.959Z,9.07
2022-07-31T22:01:15.760Z,9.37
2022-07-31T22:03:44.235Z,9.20
2022-07-31T22:06:29.959Z,8.95
2022-07-31T22:08:58.477Z,10.05
2022-07-31T22:11:26.804Z,9.57
2022-07-31T22:13:56.536Z,9.90
2022-07-31T22:16:24.913Z,9.10
2022-07-31T22:18:54.071Z,10.18
2022-07-31T22:21:23.675Z,10.57
2022-07-31T22:23:52.579Z,10.23
2022-07-31T22:26:21.683Z,10.05
2022-07-31T22:28:50.280Z,9.68
2022-07-31T22:31:20.527Z,9.20
2022-07-31T22:33:49.113Z,9.48
2022-07-31T22:36:18.598Z,8.05
2022-07-31T22:38:48.353Z,8.45
2022-07-31T22:41:16.868Z,8.95
2022-07-31T22:44:12.089Z,8.20
2022-07-31T22:46:36.563Z,8.23
2022-07-31T22:49:08.593Z,7.50
2022-07-31T22:51:38.685Z,7.40
2022-07-31T22:54:08.093Z,6.70
2022-07-31T22:56:36.523Z,7.05
2022-07-31T22:59:05.136Z,6.97
2022-07-31T23:01:34.917Z,6.95
2022-07-31T23:04:03.352Z,7.22
2022-07-31T23:06:32.803Z,6.95
2022-07-31T23:09:02.582Z,6.80
2022-07-31T23:11:31.212Z,6.72
2022-07-31T23:13:59.589Z,6.90
2022-07-31T23:16:28.293Z,7.05
2022-07-31T23:18:58.058Z,6.20
2022-07-31T23:21:26.365Z,6.80
2022-07-31T23:23:54.770Z,7.15
2022-07-31T23:26:25.738Z,7.75
2022-07-31T23:46:20.928Z,9.13
2022-07-31T23:48:55.090Z,8.63
2022-07-31T23:51:24.367Z,8.30
2022-07-31T23:53:52.821Z,8.25
2022-07-31T23:56:21.198Z,7.97
2022-07-31T23:58:49.538Z,8.55
